Relevés horaires Bierset (Belgique)


Relevés horaires à Bierset - Lundi 08 Mars 2021
Heure UTC1 Température [°C] Vent [km/h] Hum. [%] Pres.4 [hPa] Visi. [Km] Nébu. [octa] Préc.5 [mm] Cond.
2m. Res. Ros. Dir.2 Vit. Moy. Raf.3
23:00 4.4 4.4 -1.3 O 1.9 1.9 3.7 66 1021.7(-0.5/3h) 15 7/8 -- --
22:00 4.5 4.5 -- OSO 1.9 1.9 3.7 -- 1022(-0.2/3h) 15 7/8 -- --
21:00 3.6 3.6 0.5 NNO 1.9 3.7 14.8 80 1022.2(-0.1/3h) 25 7/8 -- --
20:00 5.1 5.1 -1.1 SSE 3.7 3.7 13.0 64 1022.1(-0.1/3h) 25 4/8 -- --
19:00 5.4 5.4 -1.2 SE 1.9 3.7 14.8 62 1022.2(-0.1/3h) 25 4/8 -- --
18:00 5.8 5.8 -1.1 E 1.9 5.6 14.8 61 1022.1(-0.6/3h) 25 7/8 0/12h
--
17:00 6.3 6.3 -1.5 NE 1.9 5.6 14.8 57 1022.2(-0.9/3h) 18 6/8 -- --
16:00 6.9 6 -1.2 NE 5.6 5.6 7.4 56 1022.2(-1.4/3h) 18 5/8 -- --
15:00 7.0 7.0 -1.6 NNE 3.7 5.6 11.1 54 1022.7(-1.4/3h) 18 5/8 -- --
14:00 6.5 5.6 -1.6 NE 5.6 5.6 11.1 56 1023(-1.4/3h) 15 4/8 -- --
13:00 6.0 6.0 -0.4 N 1.9 5.6 11.1 63 1023.7(-0.6/3h) 15 5/8 -- --
12:00 5.9 5.9 -0.3 N 3.7 5.6 13.0 64 1024.2(-0.3/3h) 12 5/8 0/6h
--
11:00 4.4 4.4 -2.4 NE 3.7 5.6 13.0 61 1024.6(-0.2/3h) 12 2/8 -- --
10:00 4.0 2.7 -1.1 NNE 5.6 5.6 9.3 69 1024.5(0.3/3h) 10 1/8 -- --
09:00 2.8 1.3 -1.1 NE 5.6 5.6 9.3 75 1024.7(0.8/3h) 8 1/8 -- --
08:00 1.4 1.4 -1.9 N 1.9 1.9 7.4 79 1025(1.1/3h) 8 5/8 -- --
07:00 0.6 0.6 -2.3 NE 1.9 1.9 9.3 81 1024.6(1.1/3h) 12 7/8 -- --
06:00 1.1 1.1 -1.4 N 1.9 3.7 7.4 83 1024.1(0.4/3h) 15 6/8 0/12h
--
05:00 -0.1 -0.1 -2.7 N 1.9 1.9 3.7 83 1024.1(0.0/3h) 17 6/8 -- --
04:00 -0.4 -0.4 -2.5 NNO 0.0 1.9 3.7 86 1023.6(-0.6/3h) 17 6/8 -- --
03:00 -0.2 -0.2 -3.1 N 1.9 3.7 7.4 81 1023.7(-0.6/3h) 20 6/8 -- --
02:00 0.3 0.3 -3.0 N 1.9 3.7 3.7 78 1024(-0.7/3h) 20 7/8 -- --
01:00 0.2 0.2 -3.0 N 1.9 3.7 7.4 79 1024.2(-0.6/3h) 20 7/8 -- --
00:00 0.7 0.7 -3.0 NNE 3.7 5.6 11.1 76 1024.3(0.1/3h) 20 7/8 0/6h
0/24h
--

1 Coordinated Universal Time. Actuellement il est 00:00 locale et 22:00 UTC.

2 Le vent souffle depuis la direction indiquée vers la direction oposée.

3 Les rafales max. sont disponible 40 min après l'heure du relevé.

4 Pour les stations d'altitude (plus de 600m) le géopotentiel du niveau le plus proche de la pression obligatoire est indiqué.

5 Les stations disposant d'un diffuseur peuvent indiquer "trace". Cela signifie que des précipitations ont touchés le sol mais que la quantité est inférieure à 0.1 mm.

Récapitulatif de la journée
Température [°C] Vent [km/h] Ensoleillement4 [h] Precipitations totale5 [mm] Pression [Hpa]
Min1 Max.2 Moy.3 Max. Min Max.
-0.6 9.7 4.1 14.8 0 h 0 min 0 1021.7 1025.0

1 Température minimale relevée entre 18:00 UTC la veille et 18:00 UTC le jour donné.

2 Température maximale relevée entre 06:00 UTC le jour donné et 06:00 UTC le lendemain.

3 Vent moyen de la journée basé sur les relevés horaires.

4 Ensoleillement en heures relevé entre 06:00 UTC la veille et 06:00 UTC le jour donné.

5 Précipitations totales tombées entre 06:00 UTC la jour donné et 06:00 UTC le lendemain.

Graphiques horaires